Homestead ARB Airport
KHST : now visible

Airfield :











YOU CAN JOIN US ON...

 
LOGIN :

Register | Disclaimer

   EN    FR    IT 

 









Legend :    VFR   Marginal VFR   IFR   Intensive IFR   Very Intensive IFR
Visi :
Ceiling :
>= 8 km
>= 3000ft
5 to 8 km
1000 to 3000 ft
1500m to 5 km
500 to 1000 ft
800 to 1500m
200 to 500 ft
< 800m
< 200 ft
Symbols :   Thunderstorms  Fog  Heavy snow  Heavy precipitations  Wind > 20 kt






- Airport Elevation : 5 ft


KHST - Homestead ARB

CURRENT METAR :
  • 060256Z AUTO 00000KT 10SM FEW130 22/20 A2998 RMK AO2 SLP156 T02240195 52013

EXPIRED METARs :
  • 060156Z AUTO 00000KT 10SM SCT140 23/20 A2996 RMK AO2 SLP149 T02320195
  • 060056Z AUTO 18004KT 10SM FEW070 SCT140 23/20 A2994 RMK AO2 SLP142 T02320195

TAF TAF KHST
Valid from the 06 at 03:00 until the 07 at 09:00 UTC


060300Z 0603/0709 VRB05KT 9999 VCSH SCT025 BKN140 QNH2994INS
BECMG 0614/0615 31009KT 9999 NSW SCT025 BKN050 QNH2993INS
TEMPO 0618/0622 8000 -SHRA BKN025
BECMG 0623/0624 03006KT 9999 NSW BKN020 QNH2998INS TX28/0619Z TN20/0610Z



MET'MAP, your aeronautical weather chart ! - Copyright ORBIFLY December 2007 - Disclaimer

ORBIFLY MET'MAP TEAM :

Programming & Development : Alexandra Zaïnal
Concept & original design : Baudouin d'Aumeries
Assistance for programming : Marc-Olivier Méhu
Technical & hardware support : Manuel Goepfert

Contact : metmap@orbifly.com




SOURCES & CREDITS :

   NOAA       Earth
Advisory